createdAt,value
2018-12-09T00:00:02.410Z,72.20
2018-12-09T00:01:03.482Z,72.30
2018-12-09T00:02:04.655Z,72.50
2018-12-09T00:03:05.646Z,73.00
2018-12-09T00:04:06.811Z,72.60
2018-12-09T00:05:07.890Z,73.00
2018-12-09T00:06:09.068Z,72.30
2018-12-09T00:07:10.052Z,72.30
2018-12-09T00:08:11.039Z,72.30
2018-12-09T00:09:12.009Z,72.20
2018-12-09T00:10:13.181Z,72.20
2018-12-09T00:11:14.267Z,72.30
2018-12-09T00:12:15.235Z,71.90
2018-12-09T00:13:16.192Z,71.60
2018-12-09T00:14:17.155Z,71.60
2018-12-09T00:15:18.124Z,70.90
2018-12-09T00:16:19.183Z,70.40
2018-12-09T00:17:20.360Z,70.60
2018-12-09T00:18:21.443Z,70.10
2018-12-09T00:19:22.508Z,69.70
2018-12-09T00:20:23.571Z,69.90
2018-12-09T00:21:24.727Z,70.00
2018-12-09T00:22:25.799Z,69.10
2018-12-09T00:23:26.752Z,68.80
2018-12-09T00:24:27.939Z,69.70
2018-12-09T00:25:28.904Z,69.10
2018-12-09T00:26:29.972Z,68.90
2018-12-09T00:27:30.943Z,68.80
2018-12-09T00:28:32.110Z,68.30
2018-12-09T00:29:33.086Z,68.10
2018-12-09T00:30:34.146Z,68.10
2018-12-09T00:31:35.100Z,68.10
2018-12-09T00:32:36.174Z,67.90
2018-12-09T00:33:37.235Z,68.00
2018-12-09T00:34:38.194Z,68.20
2018-12-09T00:35:39.158Z,68.20
2018-12-09T00:36:40.123Z,68.20
2018-12-09T00:37:41.191Z,68.20
2018-12-09T00:38:42.143Z,67.00
2018-12-09T00:39:43.097Z,67.20
2018-12-09T00:40:44.152Z,67.40
2018-12-09T00:41:45.116Z,67.10
2018-12-09T00:42:46.067Z,67.20
2018-12-09T00:43:47.019Z,67.10
2018-12-09T00:44:48.125Z,67.20
2018-12-09T00:45:49.183Z,67.10
2018-12-09T00:46:50.133Z,66.80
2018-12-09T00:47:51.459Z,67.00
2018-12-09T00:48:52.425Z,67.10
2018-12-09T00:49:53.379Z,67.10
2018-12-09T00:50:54.543Z,66.50
2018-12-09T00:51:55.542Z,67.10
2018-12-09T00:52:56.509Z,67.60
2018-12-09T00:53:57.540Z,66.60
2018-12-09T00:54:58.507Z,66.80
2018-12-09T00:55:59.463Z,66.40
2018-12-09T00:57:00.423Z,66.40
2018-12-09T00:58:01.384Z,66.40
2018-12-09T00:59:02.552Z,66.00
2018-12-09T01:00:06.222Z,65.10
2018-12-09T01:01:07.287Z,65.40
2018-12-09T01:02:08.456Z,65.30
2018-12-09T01:03:09.524Z,64.90
2018-12-09T01:04:10.583Z,65.00
2018-12-09T01:05:11.743Z,64.80
2018-12-09T01:06:12.908Z,64.60
2018-12-09T01:07:13.905Z,64.10
2018-12-09T01:08:14.967Z,64.10
2018-12-09T01:09:15.947Z,63.80
2018-12-09T01:10:17.107Z,63.70
2018-12-09T01:11:18.060Z,63.90
2018-12-09T01:12:19.225Z,63.90
2018-12-09T01:13:20.295Z,63.00
2018-12-09T01:14:21.467Z,63.50
2018-12-09T01:15:22.575Z,63.10
2018-12-09T01:16:23.657Z,62.60
2018-12-09T01:17:24.735Z,62.90
2018-12-09T01:18:25.733Z,62.50
2018-12-09T01:19:26.691Z,62.80
2018-12-09T01:20:27.651Z,62.00
2018-12-09T01:21:28.621Z,61.50
2018-12-09T01:22:29.703Z,60.70
2018-12-09T01:23:30.986Z,61.60
2018-12-09T01:24:32.147Z,61.60
2018-12-09T01:25:33.314Z,61.60
2018-12-09T01:26:34.271Z,61.60
2018-12-09T01:27:35.232Z,61.40
2018-12-09T01:28:36.403Z,61.60
2018-12-09T01:29:37.586Z,61.40
2018-12-09T01:30:38.649Z,61.70
2018-12-09T01:31:40.023Z,61.60
2018-12-09T01:32:41.105Z,61.60
2018-12-09T01:33:42.183Z,62.00
2018-12-09T01:34:43.136Z,61.90
2018-12-09T01:35:44.197Z,61.90
2018-12-09T01:36:45.162Z,62.20
2018-12-09T01:37:46.138Z,61.80
2018-12-09T01:38:47.307Z,62.00
2018-12-09T01:39:48.372Z,62.00
2018-12-09T01:40:53.716Z,60.30
2018-12-09T01:41:54.956Z,60.80
2018-12-09T01:42:56.231Z,61.80
2018-12-09T01:43:57.503Z,61.90
2018-12-09T01:44:58.700Z,61.50
2018-12-09T01:45:59.916Z,62.00
2018-12-09T01:47:00.978Z,61.40
2018-12-09T01:48:02.272Z,61.50
2018-12-09T01:49:03.350Z,61.10
2018-12-09T01:50:05.029Z,61.20
2018-12-09T01:51:06.092Z,61.30
2018-12-09T01:52:07.041Z,62.20
2018-12-09T01:53:20.503Z,60.80
2018-12-09T01:54:21.659Z,60.80
2018-12-09T01:55:22.618Z,60.20
2018-12-09T01:56:23.803Z,59.40
2018-12-09T01:57:25.002Z,59.30
2018-12-09T01:58:26.184Z,59.40
2018-12-09T01:59:27.348Z,58.60
2018-12-09T02:00:28.519Z,58.40
2018-12-09T02:01:29.509Z,58.20
2018-12-09T02:02:30.485Z,57.50
2018-12-09T02:03:31.654Z,58.20
2018-12-09T02:04:32.923Z,58.30
2018-12-09T02:05:34.131Z,58.30
2018-12-09T02:06:35.193Z,57.80
2018-12-09T02:07:36.370Z,58.10
2018-12-09T02:08:37.344Z,58.20
2018-12-09T02:09:38.611Z,57.40
2018-12-09T02:10:39.990Z,57.70
2018-12-09T02:11:41.059Z,57.90
2018-12-09T02:12:42.137Z,57.80
2018-12-09T02:13:43.222Z,58.50
2018-12-09T02:14:44.283Z,58.30
2018-12-09T02:15:45.360Z,58.40
2018-12-09T02:16:46.442Z,58.80
2018-12-09T02:17:47.499Z,59.00
2018-12-09T02:18:58.465Z,59.30
2018-12-09T02:19:59.625Z,59.30
2018-12-09T02:21:00.733Z,59.30
2018-12-09T02:22:01.708Z,59.50
2018-12-09T02:23:02.985Z,59.30
2018-12-09T02:24:04.155Z,59.70
2018-12-09T02:25:05.843Z,60.10
2018-12-09T02:26:07.022Z,60.00
2018-12-09T02:27:08.091Z,60.80
2018-12-09T02:28:09.162Z,61.20
2018-12-09T02:29:10.334Z,61.90
2018-12-09T02:30:11.495Z,62.90
2018-12-09T02:31:12.475Z,62.30
2018-12-09T02:32:13.445Z,63.50
2018-12-09T02:33:14.630Z,64.70
2018-12-09T02:34:15.915Z,65.40
2018-12-09T02:35:17.091Z,66.50
2018-12-09T02:36:18.157Z,66.80
2018-12-09T02:37:19.766Z,67.30
2018-12-09T02:38:20.945Z,68.20
2018-12-09T02:39:21.899Z,67.90
2018-12-09T02:40:22.976Z,68.80
2018-12-09T02:41:24.163Z,68.00
2018-12-09T02:42:25.373Z,67.80
2018-12-09T02:43:26.438Z,68.50
2018-12-09T02:44:28.197Z,68.30
2018-12-09T02:45:29.291Z,68.50
2018-12-09T02:46:30.361Z,69.20
2018-12-09T02:47:31.625Z,69.00
2018-12-09T02:48:32.705Z,69.00
2018-12-09T02:49:34.167Z,68.70
2018-12-09T02:50:35.179Z,68.70
2018-12-09T02:51:36.405Z,68.90
2018-12-09T02:52:37.519Z,69.60
2018-12-09T02:53:38.801Z,68.70
2018-12-09T02:54:40.067Z,68.80
2018-12-09T02:55:41.125Z,68.10
2018-12-09T02:56:42.116Z,68.90
2018-12-09T02:57:43.147Z,69.10
2018-12-09T02:58:44.317Z,68.70
2018-12-09T02:59:45.391Z,69.90
2018-12-09T03:00:46.750Z,68.50
2018-12-09T03:01:47.923Z,69.10
2018-12-09T03:02:49.090Z,69.30
2018-12-09T03:03:50.168Z,70.20
2018-12-09T03:04:51.136Z,70.10
2018-12-09T03:05:52.205Z,70.60
2018-12-09T03:06:53.268Z,71.70
2018-12-09T03:07:54.336Z,72.30
2018-12-09T03:08:55.295Z,73.30
2018-12-09T03:09:56.253Z,75.40
2018-12-09T03:10:57.315Z,74.10
2018-12-09T03:11:58.269Z,74.60
2018-12-09T03:12:59.734Z,76.10
2018-12-09T03:14:00.832Z,74.50
2018-12-09T03:15:02.009Z,74.70
2018-12-09T03:16:03.075Z,72.80
2018-12-09T03:17:04.141Z,72.10
2018-12-09T03:18:05.222Z,72.20
2018-12-09T03:19:06.288Z,71.40
2018-12-09T03:20:07.340Z,70.90
2018-12-09T03:21:08.408Z,71.20
2018-12-09T03:22:09.485Z,70.90
2018-12-09T03:23:10.452Z,69.40
2018-12-09T03:24:11.711Z,69.60
2018-12-09T03:25:12.791Z,69.90
2018-12-09T03:26:13.920Z,70.60
2018-12-09T03:27:21.919Z,70.50
2018-12-09T03:28:23.107Z,68.60
2018-12-09T03:29:24.167Z,69.10
2018-12-09T03:30:25.355Z,68.00
2018-12-09T03:31:26.547Z,66.90
2018-12-09T03:32:27.626Z,66.40
2018-12-09T03:33:28.700Z,66.50
2018-12-09T03:34:29.757Z,66.60
2018-12-09T03:35:30.832Z,64.90
2018-12-09T03:36:31.795Z,64.60
2018-12-09T03:37:33.151Z,65.10
2018-12-09T03:38:34.284Z,65.00
2018-12-09T03:39:35.340Z,64.80
2018-12-09T03:40:36.503Z,65.50
2018-12-09T03:41:37.683Z,63.60
2018-12-09T03:42:38.643Z,64.20
2018-12-09T03:43:39.816Z,63.00
2018-12-09T03:44:41.107Z,63.40
2018-12-09T03:45:43.599Z,63.50
2018-12-09T03:46:44.734Z,64.10
2018-12-09T03:47:45.809Z,63.50
2018-12-09T03:48:47.003Z,64.40
2018-12-09T03:49:48.175Z,63.70
2018-12-09T03:50:49.131Z,62.90
2018-12-09T03:51:50.416Z,63.20
2018-12-09T03:52:51.608Z,63.10
2018-12-09T03:53:52.672Z,63.70
2018-12-09T03:54:53.735Z,63.60
2018-12-09T03:55:54.803Z,63.40
2018-12-09T03:56:55.866Z,63.30
2018-12-09T03:57:56.925Z,63.30
2018-12-09T03:58:57.883Z,63.90
2018-12-09T03:59:58.863Z,63.60
2018-12-09T04:01:00.259Z,63.30
2018-12-09T04:02:01.218Z,63.60
2018-12-09T04:03:02.601Z,64.50
2018-12-09T04:04:03.781Z,64.00
2018-12-09T04:05:05.095Z,64.20
2018-12-09T04:06:06.163Z,64.10
2018-12-09T04:07:07.341Z,64.10
2018-12-09T04:08:08.506Z,64.00
2018-12-09T04:09:09.678Z,64.40
2018-12-09T04:10:10.947Z,64.50
2018-12-09T04:11:12.012Z,64.20
2018-12-09T04:12:13.291Z,64.50
2018-12-09T04:13:14.363Z,64.60
2018-12-09T04:14:15.423Z,64.60
2018-12-09T04:15:16.384Z,64.60
2018-12-09T04:16:17.365Z,65.70
2018-12-09T04:17:18.531Z,65.10
2018-12-09T04:18:19.609Z,64.90
2018-12-09T04:19:20.571Z,64.50
2018-12-09T04:20:21.645Z,64.90
2018-12-09T04:21:22.733Z,64.70
2018-12-09T04:22:23.809Z,64.50
2018-12-09T04:23:25.403Z,64.70
2018-12-09T04:24:26.472Z,64.40
2018-12-09T04:25:27.426Z,64.60
2018-12-09T04:26:28.379Z,64.90
2018-12-09T04:27:29.611Z,64.80
2018-12-09T04:28:30.736Z,63.90
2018-12-09T04:29:31.703Z,65.00
2018-12-09T04:30:32.835Z,64.50
2018-12-09T04:31:33.804Z,64.70
2018-12-09T04:32:34.983Z,64.70
2018-12-09T04:33:36.157Z,64.90
2018-12-09T04:34:37.560Z,64.80
2018-12-09T04:35:38.520Z,65.00
2018-12-09T04:36:39.603Z,65.00
2018-12-09T04:37:40.663Z,65.20
2018-12-09T04:38:41.745Z,65.00
2018-12-09T04:39:42.811Z,64.90
2018-12-09T04:40:43.886Z,64.90
2018-12-09T04:41:45.000Z,65.30
2018-12-09T04:42:46.007Z,65.30
2018-12-09T04:43:47.083Z,65.30
2018-12-09T04:44:48.045Z,65.90
2018-12-09T04:45:49.121Z,65.80
2018-12-09T04:46:50.307Z,65.40
2018-12-09T04:47:51.410Z,66.10
2018-12-09T04:48:52.477Z,66.20
2018-12-09T04:49:53.544Z,66.50
2018-12-09T04:50:54.604Z,66.40
2018-12-09T04:51:55.805Z,66.80
2018-12-09T04:52:56.877Z,67.20
2018-12-09T04:53:57.946Z,67.30
2018-12-09T04:54:59.007Z,66.90
2018-12-09T04:56:00.075Z,67.40
2018-12-09T04:57:01.143Z,67.00
2018-12-09T04:58:02.811Z,66.40
2018-12-09T04:59:14.103Z,66.40
2018-12-09T05:00:27.969Z,66.70
2018-12-09T05:01:28.931Z,66.90
2018-12-09T05:02:30.397Z,67.10
2018-12-09T05:03:31.459Z,67.20
2018-12-09T05:04:32.623Z,67.10
2018-12-09T05:05:33.713Z,67.10
2018-12-09T05:06:34.775Z,67.10
2018-12-09T05:07:35.739Z,67.10
2018-12-09T05:08:36.815Z,67.50
2018-12-09T05:09:38.095Z,68.20
2018-12-09T05:10:39.255Z,69.00
2018-12-09T05:11:40.323Z,68.60
2018-12-09T05:12:41.287Z,68.60
2018-12-09T05:13:42.559Z,68.70
2018-12-09T05:14:43.526Z,68.70
2018-12-09T05:15:44.495Z,68.50
2018-12-09T05:16:45.468Z,68.80
2018-12-09T05:17:46.459Z,68.70
2018-12-09T05:18:47.692Z,69.50
2018-12-09T05:19:48.764Z,68.70
2018-12-09T05:20:49.714Z,68.50
2018-12-09T05:21:50.695Z,68.60
2018-12-09T05:22:51.767Z,67.70
2018-12-09T05:23:52.836Z,68.50
2018-12-09T05:24:54.206Z,68.00
2018-12-09T05:25:55.176Z,68.50
2018-12-09T05:26:56.239Z,68.30
2018-12-09T05:27:57.195Z,67.90
2018-12-09T05:28:58.167Z,67.20
2018-12-09T05:29:59.135Z,67.50
2018-12-09T05:31:00.246Z,67.90
2018-12-09T05:32:01.278Z,67.70
2018-12-09T05:33:02.456Z,66.90
2018-12-09T05:34:03.515Z,67.50
2018-12-09T05:35:04.723Z,66.90
2018-12-09T05:36:06.105Z,66.90
2018-12-09T05:37:07.167Z,66.00
2018-12-09T05:38:08.150Z,64.70
2018-12-09T05:39:09.114Z,64.50
2018-12-09T05:40:12.005Z,64.60
2018-12-09T05:41:13.160Z,64.50
2018-12-09T05:42:14.239Z,64.60
2018-12-09T05:43:15.312Z,63.50
2018-12-09T05:44:16.403Z,63.30
2018-12-09T05:45:17.458Z,62.30
2018-12-09T05:46:25.455Z,62.20
2018-12-09T05:47:26.514Z,62.20
2018-12-09T05:48:27.987Z,62.10
2018-12-09T05:49:28.960Z,61.80
2018-12-09T05:50:30.019Z,61.60
2018-12-09T05:51:30.975Z,61.10
2018-12-09T05:52:31.964Z,61.90
2018-12-09T05:53:33.039Z,61.60
2018-12-09T05:54:34.115Z,61.30
2018-12-09T05:55:35.211Z,62.20
2018-12-09T05:56:36.290Z,61.50
2018-12-09T05:57:44.781Z,61.50
2018-12-09T05:58:45.840Z,61.40
2018-12-09T05:59:46.905Z,61.50
2018-12-09T06:00:48.283Z,61.50
2018-12-09T06:01:49.361Z,61.50
2018-12-09T06:02:52.700Z,61.60
2018-12-09T06:03:53.764Z,61.60
2018-12-09T06:04:54.843Z,61.60
2018-12-09T06:05:55.920Z,61.30
2018-12-09T06:06:56.871Z,61.80
2018-12-09T06:07:57.837Z,61.50
2018-12-09T06:09:05.953Z,61.60
2018-12-09T06:10:07.134Z,61.70
2018-12-09T06:11:08.179Z,60.90
2018-12-09T06:12:09.150Z,61.30
2018-12-09T06:13:17.450Z,61.50
2018-12-09T06:14:25.533Z,61.50
2018-12-09T06:15:26.704Z,61.50
2018-12-09T06:16:28.167Z,61.30
2018-12-09T06:17:29.132Z,61.70
2018-12-09T06:18:30.132Z,61.50
2018-12-09T06:19:31.208Z,61.40
2018-12-09T06:20:32.387Z,61.10
2018-12-09T06:21:33.452Z,61.20
2018-12-09T06:22:34.519Z,61.10
2018-12-09T06:23:35.735Z,61.60
2018-12-09T06:24:36.696Z,61.20
2018-12-09T06:25:37.671Z,60.70
2018-12-09T06:26:38.745Z,60.80
2018-12-09T06:27:40.212Z,60.50
2018-12-09T06:28:41.293Z,61.10
2018-12-09T06:29:42.350Z,60.80
2018-12-09T06:30:43.420Z,61.10
2018-12-09T06:31:44.500Z,61.10
2018-12-09T06:32:45.579Z,61.20
2018-12-09T06:33:46.639Z,61.30
2018-12-09T06:34:47.695Z,61.50
2018-12-09T06:35:48.803Z,61.50
2018-12-09T06:36:49.802Z,61.00
2018-12-09T06:37:50.862Z,61.50
2018-12-09T06:38:52.240Z,61.30
2018-12-09T06:39:53.279Z,61.20
2018-12-09T06:40:54.359Z,61.20
2018-12-09T06:41:55.318Z,61.30
2018-12-09T06:42:56.287Z,61.40
2018-12-09T06:43:57.448Z,61.40
2018-12-09T06:44:58.518Z,61.60
2018-12-09T06:45:59.578Z,61.60
2018-12-09T06:47:00.854Z,61.50
2018-12-09T06:48:02.031Z,61.60
2018-12-09T06:49:03.120Z,62.00
2018-12-09T06:50:05.075Z,61.70
2018-12-09T06:51:06.231Z,61.60
2018-12-09T06:52:07.302Z,61.80
2018-12-09T06:53:08.280Z,61.80
2018-12-09T06:54:09.235Z,61.80
2018-12-09T06:55:10.440Z,61.90
2018-12-09T06:56:11.499Z,61.80
2018-12-09T06:57:12.463Z,62.30
2018-12-09T06:58:13.519Z,62.30
2018-12-09T06:59:14.481Z,62.10
2018-12-09T07:00:15.856Z,62.40
2018-12-09T07:01:16.927Z,61.20
2018-12-09T07:02:18.084Z,61.00
2018-12-09T07:03:19.046Z,60.60
2018-12-09T07:04:20.130Z,61.10
2018-12-09T07:05:21.363Z,60.80
2018-12-09T07:06:22.434Z,61.00
2018-12-09T07:07:23.387Z,60.80
2018-12-09T07:08:24.443Z,60.80
2018-12-09T07:09:25.403Z,60.00
2018-12-09T07:10:27.013Z,60.40
2018-12-09T07:11:28.183Z,60.00
2018-12-09T07:12:29.157Z,60.60
2018-12-09T07:13:30.111Z,60.20
2018-12-09T07:14:31.112Z,60.40
2018-12-09T07:15:32.175Z,60.00
2018-12-09T07:16:33.583Z,60.20
2018-12-09T07:17:34.584Z,60.30
2018-12-09T07:18:35.743Z,59.70
2018-12-09T07:19:36.943Z,59.80
2018-12-09T07:20:38.223Z,60.00
2018-12-09T07:21:39.483Z,60.20
2018-12-09T07:22:40.541Z,60.30
2018-12-09T07:23:41.535Z,60.40
2018-12-09T07:24:42.608Z,60.20
2018-12-09T07:25:43.678Z,60.50
2018-12-09T07:26:44.759Z,60.10
2018-12-09T07:27:45.846Z,60.00
2018-12-09T07:28:46.903Z,59.70
2018-12-09T07:29:47.964Z,60.00
2018-12-09T07:30:48.947Z,59.30
2018-12-09T07:31:50.198Z,59.70
2018-12-09T07:32:51.660Z,59.50
2018-12-09T07:33:52.857Z,59.50
2018-12-09T07:34:53.927Z,59.00
2018-12-09T07:35:54.896Z,59.60
2018-12-09T07:36:55.858Z,59.50
2018-12-09T07:37:56.815Z,59.60
2018-12-09T07:38:57.896Z,59.60
2018-12-09T07:39:58.930Z,59.60
2018-12-09T07:40:59.891Z,59.70
2018-12-09T07:42:00.955Z,59.60
2018-12-09T07:43:02.021Z,59.80
2018-12-09T07:44:03.174Z,59.40
2018-12-09T07:45:04.459Z,59.40
2018-12-09T07:46:05.439Z,59.50
2018-12-09T07:47:06.606Z,59.60
2018-12-09T07:48:07.859Z,59.70
2018-12-09T07:49:09.050Z,60.40
2018-12-09T07:50:10.324Z,59.80
2018-12-09T07:51:11.395Z,59.70
2018-12-09T07:52:12.667Z,59.80
2018-12-09T07:53:13.635Z,59.50
2018-12-09T07:54:14.594Z,59.50
2018-12-09T07:55:15.656Z,59.50
2018-12-09T07:56:16.728Z,59.50
2018-12-09T07:57:24.753Z,59.70
2018-12-09T07:58:25.822Z,59.60
2018-12-09T07:59:26.875Z,59.80
2018-12-09T08:00:27.840Z,59.90
2018-12-09T08:01:28.804Z,59.80
2018-12-09T08:02:29.774Z,59.80
2018-12-09T08:03:30.838Z,60.10
2018-12-09T08:04:31.804Z,59.90
2018-12-09T08:05:32.863Z,59.90
2018-12-09T08:06:33.825Z,59.70
2018-12-09T08:07:34.798Z,60.00
2018-12-09T08:08:35.742Z,60.00
2018-12-09T08:09:36.695Z,59.90
2018-12-09T08:10:37.691Z,60.20
2018-12-09T08:11:38.659Z,60.40
2018-12-09T08:12:39.611Z,60.70
2018-12-09T08:13:40.942Z,60.40
2018-12-09T08:14:42.022Z,60.40
2018-12-09T08:15:43.115Z,60.10
2018-12-09T08:16:44.095Z,60.60
2018-12-09T08:17:45.071Z,60.40
2018-12-09T08:18:46.019Z,60.30
2018-12-09T08:19:47.134Z,60.50
2018-12-09T08:20:48.214Z,60.60
2018-12-09T08:21:49.180Z,60.40
2018-12-09T08:22:50.151Z,60.60
2018-12-09T08:23:51.115Z,61.10
2018-12-09T08:24:52.227Z,61.00
2018-12-09T08:25:53.191Z,61.00
2018-12-09T08:26:54.160Z,61.00
2018-12-09T08:27:55.164Z,61.00
2018-12-09T08:28:56.266Z,61.10
2018-12-09T08:29:57.483Z,60.80
2018-12-09T08:30:58.448Z,60.70
2018-12-09T08:31:59.410Z,61.60
2018-12-09T08:33:00.459Z,60.60
2018-12-09T08:34:01.615Z,60.60
2018-12-09T08:35:02.946Z,60.60
2018-12-09T08:36:04.024Z,60.70
2018-12-09T08:37:04.979Z,60.30
2018-12-09T08:38:06.039Z,60.40
2018-12-09T08:39:07.107Z,60.40
2018-12-09T08:40:08.174Z,60.40
2018-12-09T08:41:09.159Z,60.10
2018-12-09T08:42:10.123Z,60.60
2018-12-09T08:43:11.079Z,60.00
2018-12-09T08:44:12.043Z,59.80
2018-12-09T08:45:13.100Z,59.60
2018-12-09T08:46:14.063Z,59.30
2018-12-09T08:47:15.007Z,59.20
2018-12-09T08:48:15.965Z,59.40
2018-12-09T08:49:17.133Z,59.40
2018-12-09T08:50:18.182Z,59.40
2018-12-09T08:51:19.159Z,59.50
2018-12-09T08:52:20.127Z,59.00
2018-12-09T08:53:21.066Z,59.10
2018-12-09T08:54:29.023Z,59.40
2018-12-09T08:55:29.992Z,59.10
2018-12-09T08:56:31.055Z,59.10
2018-12-09T08:57:32.028Z,59.20
2018-12-09T08:58:33.200Z,59.30
2018-12-09T08:59:34.164Z,59.30
2018-12-09T09:00:35.127Z,59.50
2018-12-09T09:01:36.079Z,59.30
2018-12-09T09:02:37.036Z,60.20
2018-12-09T09:03:38.006Z,59.80
2018-12-09T09:04:38.987Z,59.90
2018-12-09T09:05:40.080Z,59.50
2018-12-09T09:06:41.148Z,59.80
2018-12-09T09:07:42.120Z,59.80
2018-12-09T09:08:43.081Z,59.80
2018-12-09T09:09:44.243Z,59.80
2018-12-09T09:10:45.204Z,59.40
2018-12-09T09:11:46.376Z,59.40
2018-12-09T09:12:47.551Z,59.40
2018-12-09T09:13:48.614Z,59.40
2018-12-09T09:14:49.685Z,59.50
2018-12-09T09:15:50.643Z,59.00
2018-12-09T09:16:51.680Z,59.20
2018-12-09T09:17:52.747Z,59.00
2018-12-09T09:18:53.707Z,59.10
2018-12-09T09:19:54.673Z,59.00
2018-12-09T09:20:55.675Z,59.00
2018-12-09T09:21:56.751Z,59.00
2018-12-09T09:22:57.909Z,59.20
2018-12-09T09:23:59.003Z,59.10
2018-12-09T09:24:59.966Z,59.10
2018-12-09T09:26:00.936Z,59.20
2018-12-09T09:27:01.999Z,59.20
2018-12-09T09:28:03.164Z,59.70
2018-12-09T09:29:04.127Z,59.50
2018-12-09T09:30:05.922Z,59.90
2018-12-09T09:31:07.091Z,60.20
2018-12-09T09:32:08.165Z,60.40
2018-12-09T09:33:09.151Z,60.60
2018-12-09T09:34:17.131Z,60.60
2018-12-09T09:35:18.195Z,60.40
2018-12-09T09:36:19.163Z,60.90
2018-12-09T09:37:20.253Z,60.90
2018-12-09T09:38:21.363Z,61.60
2018-12-09T09:39:22.372Z,62.10
2018-12-09T09:40:23.373Z,62.40
2018-12-09T09:41:24.354Z,62.30
2018-12-09T09:42:25.615Z,62.30
2018-12-09T09:43:26.580Z,63.10
2018-12-09T09:44:27.608Z,63.10
2018-12-09T09:45:28.611Z,62.60
2018-12-09T09:46:29.581Z,63.30
2018-12-09T09:47:30.659Z,63.70
2018-12-09T09:48:31.642Z,63.70
2018-12-09T09:49:32.755Z,64.20
2018-12-09T09:50:33.740Z,64.90
2018-12-09T09:51:34.803Z,64.90
2018-12-09T09:52:35.780Z,65.40
2018-12-09T09:53:36.738Z,65.60
2018-12-09T09:54:37.704Z,64.90
2018-12-09T09:55:38.876Z,65.50
2018-12-09T09:56:39.835Z,65.50
2018-12-09T09:57:40.967Z,65.40
2018-12-09T09:58:41.924Z,65.50
2018-12-09T09:59:43.165Z,65.90
2018-12-09T10:00:44.129Z,65.90
2018-12-09T10:01:45.090Z,65.60
2018-12-09T10:02:46.486Z,66.70
2018-12-09T10:03:47.472Z,66.30
2018-12-09T10:04:48.547Z,65.80
2018-12-09T10:05:49.628Z,65.80
2018-12-09T10:06:50.595Z,65.90
2018-12-09T10:07:51.595Z,65.90
2018-12-09T10:08:52.672Z,65.70
2018-12-09T10:09:53.637Z,65.50
2018-12-09T10:10:54.663Z,65.80
2018-12-09T10:11:55.751Z,64.40
2018-12-09T10:12:56.695Z,65.60
2018-12-09T10:13:57.647Z,66.00
2018-12-09T10:14:58.607Z,65.90
2018-12-09T10:15:59.666Z,65.90
2018-12-09T10:17:00.842Z,65.40
2018-12-09T10:18:02.766Z,65.00
2018-12-09T10:19:03.920Z,65.90
2018-12-09T10:20:05.728Z,65.50
2018-12-09T10:21:06.778Z,65.70
2018-12-09T10:22:07.888Z,65.40
2018-12-09T10:23:08.847Z,66.80
2018-12-09T10:24:10.019Z,65.70
2018-12-09T10:25:11.304Z,65.70
2018-12-09T10:26:13.873Z,66.10
2018-12-09T10:27:14.871Z,65.40
2018-12-09T10:28:15.927Z,65.50
2018-12-09T10:29:16.942Z,65.40
2018-12-09T10:30:18.039Z,65.80
2018-12-09T10:31:19.126Z,65.80
2018-12-09T10:32:20.203Z,65.60
2018-12-09T10:33:21.164Z,65.40
2018-12-09T10:34:22.841Z,65.80
2018-12-09T10:35:23.863Z,64.50
2018-12-09T10:36:25.101Z,65.40
2018-12-09T10:37:26.163Z,65.80
2018-12-09T10:38:27.120Z,65.20
2018-12-09T10:39:28.073Z,66.70
2018-12-09T10:40:29.137Z,66.10
2018-12-09T10:41:30.127Z,66.60
2018-12-09T10:42:31.163Z,66.20
2018-12-09T10:43:32.151Z,66.70
2018-12-09T10:44:33.187Z,68.10
2018-12-09T10:45:34.141Z,67.90
2018-12-09T10:46:35.094Z,68.10
2018-12-09T10:47:36.155Z,68.60
2018-12-09T10:48:37.115Z,68.50
2018-12-09T10:49:38.167Z,68.60
2018-12-09T10:50:39.240Z,68.70
2018-12-09T10:51:40.204Z,68.90
2018-12-09T10:52:41.175Z,69.10
2018-12-09T10:53:42.190Z,69.50
2018-12-09T10:54:43.153Z,69.80
2018-12-09T10:55:44.214Z,69.50
2018-12-09T10:56:45.163Z,69.10
2018-12-09T10:57:46.333Z,68.80
2018-12-09T10:58:47.303Z,69.50
2018-12-09T10:59:48.269Z,69.30
2018-12-09T11:00:51.935Z,69.50
2018-12-09T11:01:54.926Z,69.20
2018-12-09T11:02:55.993Z,68.30
2018-12-09T11:03:57.357Z,69.10
2018-12-09T11:04:58.364Z,69.60
2018-12-09T11:05:59.333Z,69.40
2018-12-09T11:07:00.283Z,69.60
2018-12-09T11:08:01.266Z,69.70
2018-12-09T11:09:04.733Z,69.70
2018-12-09T11:10:06.611Z,69.90
2018-12-09T11:11:09.317Z,69.90
2018-12-09T11:12:10.415Z,68.70
2018-12-09T11:13:11.501Z,69.10
2018-12-09T11:14:12.579Z,68.90
2018-12-09T11:15:13.527Z,69.00
2018-12-09T11:16:14.728Z,68.80
2018-12-09T11:17:15.859Z,69.00
2018-12-09T11:18:16.925Z,69.30
2018-12-09T11:19:18.151Z,68.70
2018-12-09T11:20:19.311Z,69.10
2018-12-09T11:21:20.317Z,68.80
2018-12-09T11:22:21.394Z,68.90
2018-12-09T11:23:22.353Z,68.70
2018-12-09T11:24:23.387Z,68.60
2018-12-09T11:25:24.375Z,67.80
2018-12-09T11:26:25.454Z,68.60
2018-12-09T11:27:26.416Z,68.30
2018-12-09T11:28:34.343Z,69.30
2018-12-09T11:29:35.301Z,68.80
2018-12-09T11:30:36.414Z,68.80
2018-12-09T11:31:37.375Z,68.70
2018-12-09T11:32:38.338Z,69.30
2018-12-09T11:33:39.347Z,68.70
2018-12-09T11:34:40.312Z,68.40
2018-12-09T11:35:41.387Z,68.60
2018-12-09T11:36:42.482Z,69.00
2018-12-09T11:37:43.443Z,69.20
2018-12-09T11:38:44.403Z,69.10
2018-12-09T11:39:45.359Z,69.40
2018-12-09T11:40:46.311Z,69.50
2018-12-09T11:41:47.267Z,69.20
2018-12-09T11:42:48.265Z,69.20
2018-12-09T11:43:49.385Z,69.50
2018-12-09T11:44:50.456Z,69.60
2018-12-09T11:45:51.404Z,69.30
2018-12-09T11:46:52.359Z,69.50
2018-12-09T11:47:53.431Z,69.50
2018-12-09T11:48:54.822Z,69.50
2018-12-09T11:49:55.781Z,69.70
2018-12-09T11:50:56.727Z,69.60
2018-12-09T11:51:57.700Z,69.60
2018-12-09T11:52:58.675Z,69.60
2018-12-09T11:53:59.635Z,69.50
2018-12-09T11:55:00.700Z,69.60
2018-12-09T11:56:01.696Z,69.60
2018-12-09T11:57:02.871Z,69.70
2018-12-09T11:58:04.034Z,69.90
2018-12-09T11:59:05.506Z,69.70
2018-12-09T12:00:09.876Z,69.40
2018-12-09T12:01:10.837Z,69.70
2018-12-09T12:02:19.867Z,69.90
2018-12-09T12:03:14.987Z,70.00
2018-12-09T12:04:15.951Z,70.10
2018-12-09T12:08:19.082Z,71.00
2018-12-09T12:09:20.039Z,71.80
2018-12-09T12:10:21.099Z,71.10
2018-12-09T12:11:22.158Z,71.60
2018-12-09T12:12:23.109Z,71.90
2018-12-09T12:13:24.063Z,71.30
2018-12-09T12:14:25.039Z,71.70
2018-12-09T12:15:26.128Z,71.90
2018-12-09T12:16:27.192Z,71.90
2018-12-09T12:17:28.243Z,71.90
2018-12-09T12:18:29.218Z,71.90
2018-12-09T12:19:30.279Z,72.50
2018-12-09T12:20:31.240Z,71.90
2018-12-09T12:21:32.195Z,71.50
2018-12-09T12:22:33.140Z,71.90
2018-12-09T12:23:34.205Z,72.00
2018-12-09T12:24:35.259Z,72.00
2018-12-09T12:25:36.307Z,72.00
2018-12-09T12:26:37.514Z,72.00
2018-12-09T12:27:38.551Z,72.00
2018-12-09T12:28:39.716Z,72.00
2018-12-09T12:29:40.683Z,72.10
2018-12-09T12:30:41.634Z,72.10
2018-12-09T12:31:42.596Z,72.10
2018-12-09T12:32:43.620Z,72.20
2018-12-09T12:33:44.597Z,72.90
2018-12-09T12:34:45.659Z,72.70
2018-12-09T12:35:46.615Z,72.70
2018-12-09T12:36:47.771Z,73.20
2018-12-09T12:37:48.727Z,72.40
2018-12-09T12:38:49.684Z,72.60
2018-12-09T12:39:50.640Z,72.40
2018-12-09T12:40:51.635Z,72.50
2018-12-09T12:41:52.603Z,72.70
2018-12-09T12:42:53.983Z,73.10
2018-12-09T12:43:54.952Z,72.90
2018-12-09T12:44:56.007Z,72.90
2018-12-09T12:45:57.126Z,73.20
2018-12-09T12:46:58.179Z,72.80
2018-12-09T12:47:59.879Z,72.20
2018-12-09T12:49:01.055Z,72.30
2018-12-09T12:50:03.215Z,72.70
2018-12-09T12:51:04.274Z,73.10
2018-12-09T12:52:05.343Z,72.00
2018-12-09T12:53:06.603Z,71.90
2018-12-09T12:54:07.660Z,72.50
2018-12-09T12:55:08.714Z,72.90
2018-12-09T12:56:09.670Z,73.10
2018-12-09T12:57:10.635Z,73.40
2018-12-09T12:58:11.707Z,73.30
2018-12-09T12:59:12.678Z,73.10
2018-12-09T13:00:14.739Z,73.10
2018-12-09T13:01:15.786Z,73.30
2018-12-09T13:02:16.742Z,72.90
2018-12-09T13:03:18.077Z,73.20
2018-12-09T13:04:19.315Z,72.90
2018-12-09T13:05:20.260Z,72.90
2018-12-09T13:06:21.651Z,73.60
2018-12-09T13:07:22.620Z,73.00
2018-12-09T13:08:23.786Z,73.70
2018-12-09T13:09:24.863Z,73.30
2018-12-09T13:10:25.815Z,73.70
2018-12-09T13:11:26.781Z,73.90